Time,TemperatureF,DewpointF,PressureIn,WindDirection,WindDirectionDegrees,WindSpeedMPH,WindSpeedGustMPH,Humidity,HourlyPrecipIn,Conditions,Clouds,dailyrainin,SolarRadiationWatts/m^2,SoftwareType,DateUTC
2014-08-30 00:01:00,73.5,70.4,29.96,ESE,122,0.0,0.0,90,0.00,CLR,,0.00,0.0,WeatherDisplay:10.37,2014-08-30 04:01:00,
2014-08-30 00:06:00,73.5,70.4,29.97,ESE,123,0.0,1.2,90,0.00,CLR,,0.00,0.0,WeatherDisplay:10.37,2014-08-30 04:06:00,
2014-08-30 00:11:00,73.4,70.6,29.97,ESE,123,0.1,1.2,91,0.00,CLR,,0.00,0.0,WeatherDisplay:10.37,2014-08-30 04:11:00,
2014-08-30 00:16:00,73.4,70.6,29.97,ESE,123,0.1,1.2,91,0.00,CLR,,0.00,0.0,WeatherDisplay:10.37,2014-08-30 04:16:00,
2014-08-30 00:21:00,73.3,70.5,29.97,ESE,123,0.1,0.0,91,0.00,CLR,,0.00,0.0,WeatherDisplay:10.37,2014-08-30 04:21:00,
2014-08-30 00:26:00,73.2,70.4,29.97,ESE,123,0.0,1.2,91,0.00,OVC,,0.00,0.0,WeatherDisplay:10.37,2014-08-30 04:26:00,
2014-08-30 00:31:00,73.2,70.4,29.97,ESE,123,0.0,1.2,91,0.00,CLR,,0.00,0.0,WeatherDisplay:10.37,2014-08-30 04:31:00,
2014-08-30 00:36:00,73.3,70.8,29.97,ESE,123,0.0,1.2,92,0.00,OVC,,0.00,0.0,WeatherDisplay:10.37,2014-08-30 04:36:00,
2014-08-30 00:41:00,73.2,70.7,29.97,ESE,123,0.1,1.2,92,0.00,OVC,,0.00,0.0,WeatherDisplay:10.37,2014-08-30 04:41:00,
2014-08-30 00:46:00,73.2,70.4,29.98,ESE,123,0.2,1.2,91,0.00,OVC,,0.00,0.0,WeatherDisplay:10.37,2014-08-30 04:46:00,
2014-08-30 00:51:00,73.1,70.3,29.97,ESE,123,0.1,1.2,91,0.00,OVC,,0.00,0.0,WeatherDisplay:10.37,2014-08-30 04:51:00,
2014-08-30 00:56:00,73.0,70.5,29.97,ESE,123,0.0,2.3,92,0.00,CLR,,0.00,0.0,WeatherDisplay:10.37,2014-08-30 04:56:00,
2014-08-30 01:01:00,73.0,70.5,29.98,ESE,123,0.0,1.2,92,0.00,CLR,,0.00,0.0,WeatherDisplay:10.37,2014-08-30 05:01:00,
2014-08-30 01:06:00,73.0,70.5,29.98,ESE,123,0.1,1.2,92,0.00,CLR,,0.00,0.0,WeatherDisplay:10.37,2014-08-30 05:06:00,
2014-08-30 01:11:00,73.0,70.5,29.98,ESE,123,0.1,2.3,92,0.00,CLR,,0.00,0.0,WeatherDisplay:10.37,2014-08-30 05:11:00,
2014-08-30 01:16:00,72.9,70.4,29.98,ESE,122,0.1,0.0,92,0.00,CLR,,0.00,0.0,WeatherDisplay:10.37,2014-08-30 05:16:00,
2014-08-30 01:21:00,72.9,70.4,29.98,ESE,123,0.0,1.2,92,0.00,OVC,,0.00,0.0,WeatherDisplay:10.37,2014-08-30 05:21:00,
2014-08-30 01:26:00,72.9,70.4,29.98,ESE,123,0.0,1.2,92,0.00,OVC,,0.00,0.0,WeatherDisplay:10.37,2014-08-30 05:26:00,
2014-08-30 01:31:00,72.8,70.3,29.97,ESE,123,0.0,0.0,92,0.00,OVC,,0.00,0.0,WeatherDisplay:10.37,2014-08-30 05:31:00,
2014-08-30 01:36:00,72.8,70.3,29.97,ESE,123,0.0,1.2,92,0.00,CLR,,0.00,0.0,WeatherDisplay:10.37,2014-08-30 05:36:00,
2014-08-30 01:41:00,72.7,70.2,29.97,ESE,123,0.0,1.2,92,0.00,OVC,,0.00,0.0,WeatherDisplay:10.37,2014-08-30 05:41:00,
2014-08-30 01:46:00,72.6,70.1,29.97,ESE,123,0.1,1.2,92,0.00,OVC,,0.00,0.0,WeatherDisplay:10.37,2014-08-30 05:46:00,
2014-08-30 01:51:00,72.6,70.1,29.97,ESE,123,0.0,1.2,92,0.00,CLR,,0.00,0.0,WeatherDisplay:10.37,2014-08-30 05:51:00,
2014-08-30 01:57:00,72.5,70.0,29.97,ESE,123,0.1,1.0,92,0.00,OVC,,0.00,0.0,WeatherDisplay:10.37,2014-08-30 05:57:00,
2014-08-30 02:02:00,72.5,70.4,29.97,ESE,123,0.0,1.2,93,0.00,OVC,,0.00,0.0,WeatherDisplay:10.37,2014-08-30 06:02:00,
2014-08-30 02:07:00,72.4,70.3,29.97,ESE,123,0.1,1.2,93,0.00,OVC,,0.00,0.0,WeatherDisplay:10.37,2014-08-30 06:07:00,
2014-08-30 02:12:00,72.3,70.2,29.97,ESE,123,0.1,1.2,93,0.00,OVC,,0.00,0.0,WeatherDisplay:10.37,2014-08-30 06:12:00,
2014-08-30 02:17:00,72.2,70.1,29.97,ESE,122,0.1,1.2,93,0.00,OVC,,0.00,0.0,WeatherDisplay:10.37,2014-08-30 06:17:00,
2014-08-30 02:22:00,72.1,70.0,29.97,ESE,123,0.0,1.2,93,0.00,CLR,,0.00,0.0,WeatherDisplay:10.37,2014-08-30 06:22:00,
2014-08-30 02:27:00,72.0,69.9,29.97,ESE,123,0.1,1.2,93,0.00,OVC,,0.00,0.0,WeatherDisplay:10.37,2014-08-30 06:27:00,
2014-08-30 02:32:00,71.9,69.8,29.96,ESE,123,0.0,0.0,93,0.00,CLR,,0.00,0.0,WeatherDisplay:10.37,2014-08-30 06:32:00,
2014-08-30 02:37:00,71.8,69.7,29.96,ESE,123,0.0,1.2,93,0.00,OVC,,0.00,0.0,WeatherDisplay:10.37,2014-08-30 06:37:00,
2014-08-30 02:42:00,71.8,69.7,29.96,ESE,123,0.0,1.2,93,0.00,CLR,,0.00,0.0,WeatherDisplay:10.37,2014-08-30 06:42:00,
2014-08-30 02:47:00,71.7,69.9,29.96,ESE,123,0.1,1.2,94,0.00,CLR,,0.00,0.0,WeatherDisplay:10.37,2014-08-30 06:47:00,
2014-08-30 02:52:00,71.7,69.9,29.96,ESE,123,0.0,1.2,94,0.00,CLR,,0.00,0.0,WeatherDisplay:10.37,2014-08-30 06:52:00,
2014-08-30 02:57:00,71.7,69.9,29.96,ESE,123,0.1,1.2,94,0.00,CLR,,0.00,0.0,WeatherDisplay:10.37,2014-08-30 06:57:00,
2014-08-30 03:02:00,71.6,69.8,29.96,ESE,123,0.0,0.0,94,0.00,CLR,,0.00,0.0,WeatherDisplay:10.37,2014-08-30 07:02:00,
2014-08-30 03:07:00,71.6,69.8,29.95,ESE,123,0.0,0.0,94,0.00,CLR,,0.00,0.0,WeatherDisplay:10.37,2014-08-30 07:07:00,
2014-08-30 03:12:00,71.6,69.8,29.95,ESE,123,0.1,1.2,94,0.00,OVC,,0.00,0.0,WeatherDisplay:10.37,2014-08-30 07:12:00,
2014-08-30 03:17:00,71.6,70.1,29.95,ESE,123,0.0,0.0,95,0.00,CLR,,0.00,0.0,WeatherDisplay:10.37,2014-08-30 07:17:00,
2014-08-30 03:22:00,71.6,70.1,29.95,ESE,123,0.3,1.2,95,0.00,CLR,,0.00,0.0,WeatherDisplay:10.37,2014-08-30 07:22:00,
2014-08-30 03:27:00,71.5,70.0,29.95,ESE,123,0.1,1.2,95,0.00,CLR,,0.00,0.0,WeatherDisplay:10.37,2014-08-30 07:27:00,
2014-08-30 03:32:00,71.3,69.5,29.95,ESE,123,0.0,0.0,94,0.00,CLR,,0.00,0.0,WeatherDisplay:10.37,2014-08-30 07:32:00,
2014-08-30 03:37:00,71.2,69.4,29.95,ESE,123,0.1,1.2,94,0.00,CLR,,0.00,0.0,WeatherDisplay:10.37,2014-08-30 07:37:00,
2014-08-30 03:42:00,71.1,69.3,29.95,ESE,123,0.0,1.2,94,0.00,CLR,,0.00,0.0,WeatherDisplay:10.37,2014-08-30 07:42:00,
2014-08-30 03:47:00,71.2,69.7,29.95,ESE,123,0.0,0.0,95,0.00,CLR,,0.00,0.0,WeatherDisplay:10.37,2014-08-30 07:47:00,
2014-08-30 03:52:00,71.2,69.7,29.95,ESE,123,0.0,0.0,95,0.00,CLR,,0.00,0.0,WeatherDisplay:10.37,2014-08-30 07:52:00,
2014-08-30 03:57:00,71.4,69.9,29.95,ESE,123,0.3,1.0,95,0.00,CLR,,0.00,0.0,WeatherDisplay:10.37,2014-08-30 07:57:00,
2014-08-30 04:02:00,71.5,70.0,29.95,ESE,123,0.0,3.5,95,0.00,CLR,,0.00,0.0,WeatherDisplay:10.37,2014-08-30 08:02:00,
2014-08-30 04:07:00,71.6,70.4,29.95,SE,125,0.2,1.2,96,0.00,CLR,,0.00,0.0,WeatherDisplay:10.37,2014-08-30 08:07:00,
2014-08-30 04:12:00,71.7,70.5,29.95,SE,126,0.3,2.3,96,0.00,OVC,,0.00,0.0,WeatherDisplay:10.37,2014-08-30 08:12:00,
2014-08-30 04:17:00,71.8,70.6,29.95,SE,126,0.9,3.5,96,0.00,OVC,,0.00,0.0,WeatherDisplay:10.37,2014-08-30 08:17:00,
2014-08-30 04:22:00,71.9,70.4,29.95,SE,126,0.2,1.2,95,0.00,CLR,,0.00,0.0,WeatherDisplay:10.37,2014-08-30 08:22:00,
2014-08-30 04:27:00,71.9,70.4,29.95,SE,142,1.4,4.6,95,0.00,CLR,,0.00,0.0,WeatherDisplay:10.37,2014-08-30 08:27:00,
2014-08-30 04:32:00,72.0,70.5,29.95,SE,142,0.1,2.3,95,0.00,CLR,,0.00,0.0,WeatherDisplay:10.37,2014-08-30 08:32:00,
2014-08-30 04:37:00,72.0,70.5,29.95,SE,141,0.3,2.3,95,0.00,CLR,,0.00,0.0,WeatherDisplay:10.37,2014-08-30 08:37:00,
2014-08-30 04:42:00,72.1,70.6,29.95,SE,141,0.3,2.3,95,0.00,CLR,,0.00,0.0,WeatherDisplay:10.37,2014-08-30 08:42:00,
2014-08-30 04:47:00,72.1,70.6,29.95,SE,142,2.1,4.6,95,0.00,OVC,,0.00,0.0,WeatherDisplay:10.37,2014-08-30 08:47:00,
2014-08-30 04:52:00,72.1,70.6,29.95,SE,142,0.4,2.3,95,0.00,OVC,,0.00,0.0,WeatherDisplay:10.37,2014-08-30 08:52:00,
2014-08-30 04:57:00,72.1,70.3,29.95,SE,142,0.0,2.3,94,0.00,OVC,,0.00,0.0,WeatherDisplay:10.37,2014-08-30 08:57:00,
2014-08-30 05:02:00,72.1,70.3,29.95,SE,142,0.1,1.2,94,0.00,OVC,,0.00,0.0,WeatherDisplay:10.37,2014-08-30 09:02:00,
2014-08-30 05:07:00,72.1,70.3,29.95,SE,142,0.0,1.2,94,0.00,CLR,,0.00,0.0,WeatherDisplay:10.37,2014-08-30 09:07:00,
2014-08-30 05:12:00,72.0,70.2,29.95,SE,142,0.0,2.3,94,0.00,CLR,,0.00,0.0,WeatherDisplay:10.37,2014-08-30 09:12:00,
2014-08-30 05:17:00,72.0,69.9,29.95,SE,142,0.0,1.2,93,0.00,OVC,,0.00,0.0,WeatherDisplay:10.37,2014-08-30 09:17:00,
2014-08-30 05:22:00,71.9,69.8,29.96,SE,142,0.1,1.2,93,0.00,CLR,,0.00,0.0,WeatherDisplay:10.37,2014-08-30 09:22:00,
2014-08-30 05:27:00,71.9,69.8,29.96,SE,142,0.0,1.2,93,0.00,CLR,,0.00,0.0,WeatherDisplay:10.37,2014-08-30 09:27:00,
2014-08-30 05:32:00,71.8,69.7,29.96,SE,142,0.1,1.2,93,0.00,CLR,,0.00,0.0,WeatherDisplay:10.37,2014-08-30 09:32:00,
2014-08-30 05:37:00,71.8,69.7,29.96,SSE,164,0.3,2.0,93,0.00,CLR,,0.00,0.0,WeatherDisplay:10.37,2014-08-30 09:37:00,
2014-08-30 05:42:00,71.7,69.6,29.96,SSE,164,0.0,0.0,93,0.00,CLR,,0.00,0.0,WeatherDisplay:10.37,2014-08-30 09:42:00,
2014-08-30 05:47:00,71.7,69.6,29.95,SSE,164,0.0,0.0,93,0.00,OVC,,0.00,0.0,WeatherDisplay:10.37,2014-08-30 09:47:00,
2014-08-30 05:52:00,71.6,69.5,29.96,SSE,164,1.8,4.0,93,0.00,CLR,,0.00,0.0,WeatherDisplay:10.37,2014-08-30 09:52:00,
2014-08-30 05:57:00,71.5,69.4,29.95,SE,146,1.2,4.6,93,0.00,OVC,,0.00,0.0,WeatherDisplay:10.37,2014-08-30 09:57:00,
2014-08-30 06:02:00,71.5,69.1,29.95,SE,146,1.2,2.3,92,0.00,OVC,,0.00,0.0,WeatherDisplay:10.37,2014-08-30 10:02:00,
2014-08-30 06:07:00,71.4,69.0,29.96,SE,146,0.0,0.0,92,0.00,OVC,,0.00,0.0,WeatherDisplay:10.37,2014-08-30 10:07:00,
2014-08-30 06:12:00,71.4,69.0,29.96,SE,146,0.0,1.2,92,0.00,OVC,,0.00,0.0,WeatherDisplay:10.37,2014-08-30 10:12:00,
2014-08-30 06:17:00,71.4,68.6,29.96,SE,146,0.4,0.0,91,0.00,CLR,,0.00,0.0,WeatherDisplay:10.37,2014-08-30 10:17:00,
2014-08-30 06:22:00,71.3,68.5,29.96,SE,146,0.1,1.2,91,0.00,OVC,,0.00,0.0,WeatherDisplay:10.37,2014-08-30 10:22:00,
2014-08-30 06:27:00,71.2,68.8,29.96,SE,146,0.1,0.0,92,0.00,OVC,,0.00,0.0,WeatherDisplay:10.37,2014-08-30 10:27:00,
2014-08-30 06:32:00,71.1,68.3,29.96,SE,146,0.1,1.2,91,0.00,CLR,,0.00,0.0,WeatherDisplay:10.37,2014-08-30 10:32:00,
2014-08-30 06:37:00,71.0,68.2,29.96,SE,146,0.0,1.2,91,0.00,OVC,,0.00,0.0,WeatherDisplay:10.37,2014-08-30 10:37:00,
2014-08-30 06:42:00,70.9,68.1,29.96,SE,146,0.0,0.0,91,0.00,CLR,,0.00,0.0,WeatherDisplay:10.37,2014-08-30 10:42:00,
2014-08-30 06:47:00,70.9,68.1,29.96,SE,146,0.1,1.2,91,0.00,CLR,,0.00,0.0,WeatherDisplay:10.37,2014-08-30 10:47:00,
2014-08-30 06:52:00,70.8,68.0,29.96,SE,146,0.3,2.3,91,0.00,CLR,,0.00,0.0,WeatherDisplay:10.37,2014-08-30 10:52:00,
2014-08-30 06:57:00,70.8,68.0,29.96,SE,146,0.1,2.3,91,0.00,CLR,,0.00,0.0,WeatherDisplay:10.37,2014-08-30 10:57:00,
2014-08-30 07:02:00,70.7,67.9,29.97,SE,146,0.1,1.2,91,0.00,OVC,,0.00,0.0,WeatherDisplay:10.37,2014-08-30 11:02:00,
2014-08-30 07:07:00,70.6,68.2,29.96,SE,146,0.1,0.0,92,0.00,OVC,,0.00,0.0,WeatherDisplay:10.37,2014-08-30 11:07:00,
2014-08-30 07:12:00,70.5,68.1,29.97,SE,146,0.0,0.0,92,0.00,OVC,,0.00,5.0,WeatherDisplay:10.37,2014-08-30 11:12:00,
2014-08-30 07:17:00,70.4,68.0,29.97,SE,146,0.0,0.0,92,0.00,OVC,,0.00,9.0,WeatherDisplay:10.37,2014-08-30 11:17:00,
2014-08-30 07:22:00,70.4,68.0,29.97,SE,146,0.0,0.0,92,0.00,,,0.00,16.0,WeatherDisplay:10.37,2014-08-30 11:22:00,
2014-08-30 07:27:00,70.3,67.9,29.97,SE,146,0.0,1.2,92,0.00,,,0.00,19.0,WeatherDisplay:10.37,2014-08-30 11:27:00,
2014-08-30 07:32:00,70.3,67.9,29.97,SE,146,0.0,1.2,92,0.00,,,0.00,23.0,WeatherDisplay:10.37,2014-08-30 11:32:00,
2014-08-30 07:37:00,70.3,67.9,29.97,SE,146,0.1,1.2,92,0.00,OVC,,0.00,26.0,WeatherDisplay:10.37,2014-08-30 11:37:00,
2014-08-30 07:42:00,70.3,68.2,29.97,SE,146,0.3,1.2,93,0.00,OVC,,0.00,32.0,WeatherDisplay:10.37,2014-08-30 11:42:00,
2014-08-30 07:47:00,70.4,68.3,29.97,SE,146,0.0,0.0,93,0.00,,,0.00,33.0,WeatherDisplay:10.37,2014-08-30 11:47:00,
2014-08-30 07:52:00,70.5,68.4,29.96,SSE,147,0.0,2.3,93,0.00,,,0.00,32.0,WeatherDisplay:10.37,2014-08-30 11:52:00,
2014-08-30 07:57:00,70.7,68.6,29.96,SE,146,0.1,3.5,93,0.00,,,0.00,39.0,WeatherDisplay:10.37,2014-08-30 11:57:00,
2014-08-30 08:02:00,70.9,68.5,29.97,SE,146,0.1,1.2,92,0.00,,,0.00,83.0,WeatherDisplay:10.37,2014-08-30 12:02:00,
2014-08-30 08:07:00,71.2,68.8,29.97,SE,144,0.4,1.2,92,0.00,OVC,,0.00,107.0,WeatherDisplay:10.37,2014-08-30 12:07:00,
2014-08-30 08:12:00,71.8,69.0,29.97,SE,144,0.0,0.0,91,0.00,CLR,,0.00,125.0,WeatherDisplay:10.37,2014-08-30 12:12:00,
2014-08-30 08:17:00,72.4,69.3,29.97,SE,145,0.1,1.2,90,0.00,OVC,,0.00,141.0,WeatherDisplay:10.37,2014-08-30 12:17:00,
2014-08-30 08:23:00,73.1,69.3,29.97,South,178,1.6,3.5,88,0.00,OVC,,0.00,155.0,WeatherDisplay:10.37,2014-08-30 12:23:00,
2014-08-30 08:28:00,73.7,69.6,29.97,South,172,0.0,1.2,87,0.00,OVC,,0.00,148.0,WeatherDisplay:10.37,2014-08-30 12:28:00,
2014-08-30 08:33:00,74.1,69.3,29.97,South,172,1.2,3.5,85,0.00,CLR,,0.00,179.0,WeatherDisplay:10.37,2014-08-30 12:33:00,
2014-08-30 08:38:00,74.5,69.3,29.97,South,171,0.2,1.2,84,0.00,CLR,,0.00,86.0,WeatherDisplay:10.37,2014-08-30 12:38:00,
2014-08-30 08:43:00,74.8,69.3,29.97,SSE,160,1.9,6.9,83,0.00,OVC,,0.00,100.0,WeatherDisplay:10.37,2014-08-30 12:43:00,
2014-08-30 08:48:00,75.2,69.0,29.97,SSE,157,0.9,6.9,81,0.00,OVC,,0.00,95.0,WeatherDisplay:10.37,2014-08-30 12:48:00,
2014-08-30 08:53:00,75.6,69.4,29.97,SE,135,0.2,4.0,81,0.00,OVC,,0.00,88.0,WeatherDisplay:10.37,2014-08-30 12:53:00,
2014-08-30 08:58:00,75.9,68.5,29.97,SSE,161,1.2,3.5,78,0.00,OVC,,0.00,88.0,WeatherDisplay:10.37,2014-08-30 12:58:00,
2014-08-30 09:03:00,76.3,68.9,29.97,SSE,161,1.3,5.8,78,0.00,OVC,,0.00,84.0,WeatherDisplay:10.37,2014-08-30 13:03:00,
2014-08-30 09:08:00,76.7,69.3,29.97,SSE,165,0.6,2.3,78,0.00,OVC,,0.00,90.0,WeatherDisplay:10.37,2014-08-30 13:08:00,
2014-08-30 09:13:00,76.9,69.1,29.97,SSE,168,2.3,8.1,77,0.00,OVC,,0.00,125.0,WeatherDisplay:10.37,2014-08-30 13:13:00,
2014-08-30 09:18:00,77.4,69.2,29.97,SSE,168,0.6,2.3,76,0.00,OVC,,0.00,162.0,WeatherDisplay:10.37,2014-08-30 13:18:00,
2014-08-30 09:23:00,77.9,69.3,29.97,South,169,5.4,10.4,75,0.00,OVC,,0.00,148.0,WeatherDisplay:10.37,2014-08-30 13:23:00,
2014-08-30 09:28:00,78.1,68.7,29.97,SSE,167,1.5,3.5,73,0.00,OVC,,0.00,139.0,WeatherDisplay:10.37,2014-08-30 13:28:00,
2014-08-30 09:33:00,78.1,68.7,29.97,ESE,117,0.9,6.9,73,0.00,OVC,,0.00,141.0,WeatherDisplay:10.37,2014-08-30 13:33:00,
2014-08-30 09:38:00,78.1,68.7,29.98,South,171,1.3,3.5,73,0.00,OVC,,0.00,132.0,WeatherDisplay:10.37,2014-08-30 13:38:00,
2014-08-30 09:43:00,78.0,68.6,29.98,SSE,161,0.7,2.3,73,0.00,OVC,,0.00,155.0,WeatherDisplay:10.37,2014-08-30 13:43:00,
2014-08-30 09:48:00,78.0,68.6,29.98,South,170,2.2,8.1,73,0.00,OVC,,0.00,158.0,WeatherDisplay:10.37,2014-08-30 13:48:00,
2014-08-30 09:53:00,78.0,68.2,29.97,SE,142,0.9,4.6,72,0.00,OVC,,0.00,155.0,WeatherDisplay:10.37,2014-08-30 13:53:00,
2014-08-30 09:58:00,78.1,68.7,29.98,South,175,0.1,1.2,73,0.00,OVC,,0.00,149.0,WeatherDisplay:10.37,2014-08-30 13:58:00,
2014-08-30 10:03:00,78.2,69.2,29.97,South,175,0.0,1.2,74,0.00,OVC,,0.00,137.0,WeatherDisplay:10.37,2014-08-30 14:03:00,
2014-08-30 10:08:00,78.3,69.3,29.97,South,169,0.3,1.2,74,0.00,OVC,,0.00,183.0,WeatherDisplay:10.37,2014-08-30 14:08:00,
2014-08-30 10:13:00,78.6,69.2,29.97,SE,128,0.2,1.0,73,0.00,OVC,,0.00,146.0,WeatherDisplay:10.37,2014-08-30 14:13:00,
2014-08-30 10:18:00,79.1,70.1,29.97,ESE,109,0.3,2.3,74,0.00,OVC,,0.00,127.0,WeatherDisplay:10.37,2014-08-30 14:18:00,
2014-08-30 10:23:00,79.4,70.4,29.97,SSE,148,1.4,4.6,74,0.00,OVC,,0.00,142.0,WeatherDisplay:10.37,2014-08-30 14:23:00,
2014-08-30 10:28:00,79.9,70.5,29.97,SSE,167,1.9,5.8,73,0.00,OVC,,0.00,172.0,WeatherDisplay:10.37,2014-08-30 14:28:00,
2014-08-30 10:33:00,80.4,69.7,29.97,South,188,2.7,5.8,70,0.00,OVC,,0.00,141.0,WeatherDisplay:10.37,2014-08-30 14:33:00,
2014-08-30 10:38:00,80.7,69.6,29.97,SE,146,0.5,3.5,69,0.00,OVC,,0.00,142.0,WeatherDisplay:10.37,2014-08-30 14:38:00,
2014-08-30 10:43:00,81.1,70.0,29.97,South,173,2.7,10.4,69,0.00,OVC,,0.00,200.0,WeatherDisplay:10.37,2014-08-30 14:43:00,
2014-08-30 10:48:00,81.4,69.4,29.97,SE,144,0.7,3.5,67,0.00,OVC,,0.00,188.0,WeatherDisplay:10.37,2014-08-30 14:48:00,
2014-08-30 10:53:00,81.8,71.1,29.97,South,177,0.0,1.2,70,0.00,OVC,,0.00,221.0,WeatherDisplay:10.37,2014-08-30 14:53:00,
2014-08-30 10:58:00,82.2,70.6,29.97,North,360,1.3,5.8,68,0.00,OVC,,0.00,183.0,WeatherDisplay:10.37,2014-08-30 14:58:00,
2014-08-30 11:03:00,82.1,70.5,29.97,SE,128,0.1,1.2,68,0.00,OVC,,0.00,163.0,WeatherDisplay:10.37,2014-08-30 15:03:00,
2014-08-30 11:08:00,81.6,70.4,29.97,NNW,333,0.1,4.6,69,0.00,OVC,,0.00,146.0,WeatherDisplay:10.37,2014-08-30 15:08:00,
2014-08-30 11:13:00,81.2,70.1,29.97,NNW,333,0.2,1.2,69,0.00,OVC,,0.00,149.0,WeatherDisplay:10.37,2014-08-30 15:13:00,
2014-08-30 11:18:00,81.6,69.6,29.97,South,175,0.1,1.2,67,0.00,OVC,,0.00,142.0,WeatherDisplay:10.37,2014-08-30 15:18:00,
2014-08-30 11:23:00,81.7,70.5,29.97,North,360,0.4,3.5,69,0.00,OVC,,0.00,144.0,WeatherDisplay:10.37,2014-08-30 15:23:00,
2014-08-30 11:28:00,82.0,70.0,29.97,ESE,105,0.1,1.2,67,0.00,OVC,,0.00,171.0,WeatherDisplay:10.37,2014-08-30 15:28:00,
2014-08-30 11:33:00,82.1,70.5,29.97,ESE,104,0.3,1.2,68,0.00,OVC,,0.00,255.0,WeatherDisplay:10.37,2014-08-30 15:33:00,
2014-08-30 11:38:00,82.1,70.9,29.98,NW,316,0.2,1.0,69,0.00,OVC,,0.00,654.0,WeatherDisplay:10.37,2014-08-30 15:38:00,
2014-08-30 11:43:00,82.1,70.9,29.98,NW,315,0.2,1.2,69,0.00,OVC,,0.00,656.0,WeatherDisplay:10.37,2014-08-30 15:43:00,
2014-08-30 11:48:00,82.1,71.3,29.98,WNW,292,0.1,2.3,70,0.00,OVC,,0.00,603.0,WeatherDisplay:10.37,2014-08-30 15:48:00,
2014-08-30 11:53:00,82.3,71.5,29.98,WNW,290,0.0,1.2,70,0.00,OVC,,0.00,622.0,WeatherDisplay:10.37,2014-08-30 15:53:00,
2014-08-30 11:58:00,83.6,70.6,29.98,SSE,159,0.4,1.2,65,0.00,OVC,,0.00,461.0,WeatherDisplay:10.37,2014-08-30 15:58:00,
2014-08-30 12:03:00,82.8,71.2,29.98,NNE,15,0.3,2.3,68,0.00,OVC,,0.00,568.0,WeatherDisplay:10.37,2014-08-30 16:03:00,
2014-08-30 12:08:00,82.6,71.4,29.98,South,186,1.0,2.3,69,0.00,OVC,,0.00,522.0,WeatherDisplay:10.37,2014-08-30 16:08:00,
2014-08-30 12:13:00,83.8,70.3,29.98,East,80,0.1,3.5,64,0.00,OVC,,0.00,469.0,WeatherDisplay:10.37,2014-08-30 16:13:00,
2014-08-30 12:18:00,83.1,69.7,29.98,NNE,17,0.7,2.3,64,0.00,OVC,,0.00,404.0,WeatherDisplay:10.37,2014-08-30 16:18:00,
2014-08-30 12:23:00,82.3,70.2,29.98,NNW,330,0.1,1.2,67,0.00,OVC,,0.00,499.0,WeatherDisplay:10.37,2014-08-30 16:23:00,